メインページ
METAR-TAF:

METAR-TAF

空港 :

アボッツフォード, ブリティッシュコロンビア州, カナダ

緯度: 49-02N, 経度: 122-22W, 海抜: 54m

現時点の気象観測

当レポートは59分前の02:00(UTC)に作成
南西の風 10kt
気温 21°C
湿度 49%
気圧 1011 hPa
視程: 48.3km
高度5500ftの雲はほとんどない, 塔状積雲.
高度6000ftの雲はほとんどない
高度8000ftの雲はほとんどない
高度22000ftの雲は散在している
高度24000ftの雲は散在している

METAR: CYXX 240200Z 22010KT 30SM FEW055TCU FEW060 FEW080 SCT220 SCT240 21/10 A2984 RMK TCU1SC1AC1CS1CI1 AC TR CI TR SLP107 DENSITY ALT 1100FT

時間: 19:59 (02:59 UTC)

予報

当レポートは3時間20分前の23:39(UTC)に作成
予報は24日の 00時(UTC)から 24日の 24時(UTC)まで有効
南/南西の風 8kt
視程: 10km
高度10000ftの雲はほとんどない
高度15000ftの雲は散在している
24日の 0500時(UTC)から
南西の風 8kt
視程: 10km
高度8000ftの雲は散在している
高度14000ftの千切れ雲あり
24日の 1000時(UTC)から
南西の風 6kt
視程: 10km
高度4000ftの雲はほとんどない
高度7000ftの曇り
24日の 1400時(UTC)から
南/南西の風 5kt
視程: 10km
高度2000ftの雲は散在している
高度4000ftの曇り
小雨
24日の 2300時(UTC)から
西の風 5kt
視程: 10km
高度4000ftの千切れ雲あり

TAF: CYXX 232339Z 2400/2424 20008KT P6SM FEW100 SCT150 FM240500 22008KT P6SM SCT080 BKN140 FM241000 22006KT P6SM FEW040 OVC070 FM241400 20005KT P6SM -RA SCT020 OVC040 FM242300 26005KT P6SM BKN040 RMK NXT FCST BY 240600Z

4,000以上の空港の気象観測と天気予報(METAR報とTAF報)

利用可能な観測所は地図上に黄色い丸と赤い丸で示す。

丸の上にカーソルを重ねると観測所名を参照できる。

次にクリックすると気象観測と天気予報を参照できる。

マップの切り替え:黒色「×」印の緑ボタンをクリックして拡大、「-」印の緑ボタンをクリックして縮小、緑色の三角印をクリックして隣りの地図に切り替え


METAR-TAF: